createdAt,value
2023-05-05T00:00:58.011Z,41.62
2023-05-05T00:04:00.388Z,41.35
2023-05-05T00:07:02.639Z,41.02
2023-05-05T00:10:05.500Z,41.62
2023-05-05T00:13:08.239Z,40.75
2023-05-05T00:16:10.624Z,41.51
2023-05-05T00:19:12.918Z,41.27
2023-05-05T00:22:15.413Z,41.78
2023-05-05T00:25:17.695Z,41.54
2023-05-05T00:28:19.944Z,41.60
2023-05-05T00:31:22.654Z,41.56
2023-05-05T00:34:24.980Z,41.60
2023-05-05T00:37:27.416Z,41.60
2023-05-05T00:40:29.767Z,41.29
2023-05-05T00:43:32.482Z,41.63
2023-05-05T00:46:35.956Z,42.12
2023-05-05T00:49:38.550Z,41.80
2023-05-05T00:52:40.896Z,42.16
2023-05-05T00:55:43.105Z,43.67
2023-05-05T00:58:45.552Z,43.63
2023-05-05T01:01:48.452Z,43.08
2023-05-05T01:04:50.843Z,43.12
2023-05-05T01:08:22.468Z,43.85
2023-05-05T01:11:31.062Z,44.70
2023-05-05T01:14:41.143Z,44.32
2023-05-05T01:18:12.069Z,42.86
2023-05-05T01:21:19.009Z,42.96
2023-05-05T01:24:55.710Z,43.20
2023-05-05T01:28:13.288Z,42.90
2023-05-05T01:31:31.947Z,42.58
2023-05-05T01:34:37.238Z,42.43
2023-05-05T01:37:58.219Z,44.38
2023-05-05T01:41:17.639Z,44.79
2023-05-05T01:44:20.360Z,46.12
2023-05-05T01:47:23.815Z,45.05
2023-05-05T01:50:28.817Z,45.43
2023-05-05T01:53:31.434Z,45.33
2023-05-05T01:56:34.811Z,45.67
2023-05-05T01:59:40.735Z,45.80
2023-05-05T02:02:45.669Z,45.83
2023-05-05T02:05:49.215Z,45.26
2023-05-05T02:08:53.025Z,45.01
2023-05-05T02:11:58.074Z,45.48
2023-05-05T02:15:02.191Z,45.60
2023-05-05T02:18:06.559Z,46.20
2023-05-05T02:21:09.168Z,46.13
2023-05-05T02:24:11.574Z,46.36
2023-05-05T02:27:16.384Z,47.12
2023-05-05T02:30:19.952Z,46.96
2023-05-05T02:33:23.881Z,46.68
2023-05-05T02:36:28.650Z,46.91
2023-05-05T02:39:43.647Z,48.21
2023-05-05T02:42:50.136Z,47.63
2023-05-05T02:45:52.910Z,47.74
2023-05-05T02:48:56.381Z,47.29
2023-05-05T02:51:58.698Z,46.64
2023-05-05T02:55:05.374Z,47.20
2023-05-05T02:58:22.079Z,46.89
2023-05-05T03:01:57.453Z,46.61
2023-05-05T03:05:08.618Z,46.51
2023-05-05T03:08:18.640Z,46.99
2023-05-05T03:11:29.439Z,46.77
2023-05-05T03:14:36.541Z,47.03
2023-05-05T03:17:40.916Z,47.41
2023-05-05T03:20:44.077Z,47.81
2023-05-05T03:23:49.378Z,48.15
2023-05-05T03:26:55.673Z,48.79
2023-05-05T03:30:01.215Z,48.55
2023-05-05T03:33:04.057Z,49.42
2023-05-05T03:36:06.564Z,48.95
2023-05-05T03:39:10.809Z,48.78
2023-05-05T03:42:13.537Z,49.42
2023-05-05T03:45:15.910Z,50.12
2023-05-05T03:48:18.232Z,50.60
2023-05-05T03:51:21.176Z,50.83
2023-05-05T03:54:23.763Z,51.40
2023-05-05T03:57:27.495Z,51.01
2023-05-05T04:00:29.751Z,51.78
2023-05-05T04:03:32.549Z,51.69
2023-05-05T04:06:35.144Z,52.21
2023-05-05T04:09:44.277Z,51.08
2023-05-05T04:12:47.326Z,51.55
2023-05-05T04:15:49.901Z,51.33
2023-05-05T04:18:53.819Z,50.10
2023-05-05T04:21:56.394Z,50.60
2023-05-05T04:24:58.736Z,50.13
2023-05-05T04:28:01.505Z,50.29
2023-05-05T04:31:05.196Z,50.35
2023-05-05T04:34:11.465Z,50.28
2023-05-05T04:37:14.470Z,50.03
2023-05-05T04:40:16.877Z,50.20
2023-05-05T04:43:19.869Z,49.71
2023-05-05T04:46:22.735Z,50.19
2023-05-05T04:49:25.635Z,50.76
2023-05-05T04:52:28.006Z,50.07
2023-05-05T04:55:30.471Z,49.78
2023-05-05T04:58:34.398Z,50.48
2023-05-05T05:01:38.604Z,49.51
2023-05-05T05:04:41.239Z,49.54
2023-05-05T05:07:43.580Z,49.00
2023-05-05T05:10:45.821Z,49.33
2023-05-05T05:13:48.059Z,48.16
2023-05-05T05:16:52.402Z,48.09
2023-05-05T05:19:59.253Z,47.23
2023-05-05T05:23:02.401Z,46.83
2023-05-05T05:26:06.529Z,46.70
2023-05-05T05:29:10.381Z,45.86
2023-05-05T05:32:13.190Z,41.32
2023-05-05T05:35:15.886Z,38.77
2023-05-05T05:38:18.330Z,38.52
2023-05-05T05:41:21.674Z,36.97
2023-05-05T05:44:24.066Z,35.85
2023-05-05T05:47:26.757Z,36.56
2023-05-05T05:50:29.351Z,34.94
2023-05-05T05:53:33.997Z,35.41
2023-05-05T05:56:36.626Z,35.65
2023-05-05T05:59:38.914Z,35.20
2023-05-05T06:02:41.476Z,33.96
2023-05-05T06:05:48.031Z,33.44
2023-05-05T06:08:51.341Z,34.46
2023-05-05T06:11:53.667Z,35.28
2023-05-05T06:14:56.468Z,35.08
2023-05-05T06:17:58.830Z,34.19
2023-05-05T06:21:02.536Z,34.21
2023-05-05T06:24:06.285Z,33.82
2023-05-05T06:27:10.467Z,33.08
2023-05-05T06:30:13.335Z,32.87
2023-05-05T06:33:15.578Z,31.85
2023-05-05T06:36:17.949Z,29.89
2023-05-05T06:39:20.226Z,29.17
2023-05-05T06:42:22.569Z,28.69
2023-05-05T06:45:27.120Z,28.28
2023-05-05T06:48:29.396Z,26.67
2023-05-05T06:51:31.954Z,26.16
2023-05-05T06:54:34.171Z,25.49
2023-05-05T06:57:36.302Z,24.06
2023-05-05T07:00:39.644Z,22.94
2023-05-05T07:03:42.048Z,22.58
2023-05-05T07:06:44.314Z,22.56
2023-05-05T07:09:46.542Z,23.36
2023-05-05T07:12:49.942Z,22.63
2023-05-05T07:15:52.274Z,21.25
2023-05-05T07:18:54.484Z,20.91
2023-05-05T07:21:56.718Z,21.13
2023-05-05T07:24:58.985Z,21.60
2023-05-05T07:28:01.531Z,21.40
2023-05-05T07:31:03.751Z,22.30
2023-05-05T07:34:05.920Z,23.68
2023-05-05T07:37:08.132Z,23.44
2023-05-05T07:40:10.969Z,22.69
2023-05-05T07:43:13.459Z,21.77
2023-05-05T07:46:16.142Z,21.32
2023-05-05T07:49:18.429Z,25.26
2023-05-05T07:52:30.106Z,27.39
2023-05-05T07:55:39.962Z,27.99
2023-05-05T07:58:42.297Z,26.80
2023-05-05T08:01:44.707Z,27.38
2023-05-05T08:04:46.935Z,27.21
2023-05-05T08:07:49.215Z,26.94
2023-05-05T08:10:53.015Z,25.03
2023-05-05T08:13:55.416Z,23.99
2023-05-05T08:16:57.668Z,24.92
2023-05-05T08:19:59.936Z,25.86
2023-05-05T08:23:02.234Z,27.28
2023-05-05T08:26:09.478Z,27.87
2023-05-05T08:29:11.842Z,28.84
2023-05-05T08:32:16.229Z,28.36
2023-05-05T08:35:18.576Z,29.87
2023-05-05T08:38:20.872Z,31.60
2023-05-05T08:41:23.146Z,32.13
2023-05-05T08:44:26.985Z,33.02
2023-05-05T08:47:30.079Z,33.48
2023-05-05T08:50:32.608Z,34.58
2023-05-05T08:54:01.405Z,34.64
2023-05-05T08:57:05.391Z,34.58
2023-05-05T09:00:09.936Z,34.68
2023-05-05T09:03:13.161Z,34.70
2023-05-05T09:06:16.023Z,35.78
2023-05-05T09:09:18.211Z,35.99
2023-05-05T09:12:21.475Z,35.44
2023-05-05T09:15:23.725Z,35.15
2023-05-05T09:18:26.490Z,34.72
2023-05-05T09:21:29.342Z,34.67
2023-05-05T09:24:31.570Z,34.45
2023-05-05T09:27:47.022Z,35.55
2023-05-05T09:30:49.380Z,34.62
2023-05-05T09:33:51.926Z,33.64
2023-05-05T09:36:54.095Z,33.99
2023-05-05T09:39:57.720Z,34.26
2023-05-05T09:43:03.208Z,33.33
2023-05-05T09:46:07.423Z,33.10
2023-05-05T09:49:15.550Z,33.95
2023-05-05T09:52:17.830Z,33.33
2023-05-05T09:55:20.151Z,33.38
2023-05-05T09:58:26.918Z,34.09
2023-05-05T10:01:29.332Z,34.87
2023-05-05T10:04:31.924Z,34.01
2023-05-05T10:07:35.480Z,33.94
2023-05-05T10:10:46.659Z,34.13
2023-05-05T10:13:48.943Z,34.13
2023-05-05T10:16:52.676Z,33.95
2023-05-05T10:19:57.325Z,34.51
2023-05-05T10:23:00.097Z,33.74
2023-05-05T10:26:05.487Z,34.17
2023-05-05T10:29:17.751Z,34.31
2023-05-05T10:35:37.641Z,32.85
2023-05-05T10:38:39.928Z,31.19
2023-05-05T10:41:42.290Z,31.65
2023-05-05T10:44:44.592Z,32.56
2023-05-05T10:47:46.912Z,31.60
2023-05-05T10:50:52.847Z,31.49
2023-05-05T10:54:00.941Z,31.31
2023-05-05T10:57:04.966Z,31.72
2023-05-05T11:00:08.974Z,31.45
2023-05-05T11:03:17.724Z,31.64
2023-05-05T11:06:20.034Z,31.30
2023-05-05T11:09:29.694Z,31.40
2023-05-05T11:12:33.475Z,31.33
2023-05-05T11:15:37.923Z,31.78
2023-05-05T11:18:44.395Z,31.87
2023-05-05T11:22:06.877Z,32.19
2023-05-05T11:25:34.375Z,31.38
2023-05-05T11:28:59.626Z,31.17
2023-05-05T11:32:15.696Z,31.79
2023-05-05T11:35:18.095Z,31.83
2023-05-05T11:38:30.900Z,32.57
2023-05-05T11:41:33.357Z,32.56
2023-05-05T11:44:35.957Z,32.29
2023-05-05T11:47:38.277Z,32.45
2023-05-05T11:50:40.799Z,33.16
2023-05-05T11:53:44.129Z,32.69
2023-05-05T11:56:59.334Z,31.61
2023-05-05T12:00:02.770Z,30.53
2023-05-05T12:03:06.960Z,30.95
2023-05-05T12:06:09.373Z,31.19
2023-05-05T12:09:19.212Z,30.64
2023-05-05T12:12:22.053Z,29.27
2023-05-05T12:15:33.313Z,29.55
2023-05-05T12:18:35.564Z,30.00
2023-05-05T12:21:38.474Z,29.68
2023-05-05T12:24:40.738Z,29.50
2023-05-05T12:27:51.961Z,29.66
2023-05-05T12:30:58.798Z,30.01
2023-05-05T12:34:01.914Z,29.51
2023-05-05T12:37:04.730Z,30.11
2023-05-05T12:40:08.848Z,29.26
2023-05-05T12:43:24.073Z,30.16
2023-05-05T12:46:32.023Z,29.17
2023-05-05T12:49:50.924Z,29.65
2023-05-05T12:52:53.451Z,29.69
2023-05-05T12:55:55.674Z,29.53
2023-05-05T12:58:57.926Z,29.56
2023-05-05T13:02:01.559Z,29.05
2023-05-05T13:05:04.473Z,28.88
2023-05-05T13:08:07.475Z,29.00
2023-05-05T13:11:09.676Z,29.63
2023-05-05T13:14:11.884Z,28.70
2023-05-05T13:17:14.489Z,28.96
2023-05-05T13:20:16.987Z,28.96
2023-05-05T13:23:19.959Z,28.29
2023-05-05T13:26:22.332Z,29.68
2023-05-05T13:29:29.579Z,28.79
2023-05-05T13:32:33.787Z,28.84
2023-05-05T13:35:36.185Z,28.87
2023-05-05T13:38:38.591Z,29.76
2023-05-05T13:41:40.839Z,29.76
2023-05-05T13:44:43.121Z,30.07
2023-05-05T13:47:45.681Z,30.80
2023-05-05T13:50:48.977Z,30.63
2023-05-05T13:53:51.469Z,30.52
2023-05-05T13:56:53.820Z,29.68
2023-05-05T13:59:56.090Z,29.74
2023-05-05T14:02:58.377Z,29.71
2023-05-05T14:06:00.810Z,29.56
2023-05-05T14:09:05.986Z,29.26
2023-05-05T14:12:08.619Z,28.68
2023-05-05T14:15:11.753Z,28.91
2023-05-05T14:18:14.076Z,28.67
2023-05-05T14:21:16.489Z,29.02
2023-05-05T14:24:18.726Z,29.77
2023-05-05T14:27:21.044Z,29.65
2023-05-05T14:30:23.429Z,29.65
2023-05-05T14:33:25.898Z,29.92
2023-05-05T14:36:28.164Z,29.48
2023-05-05T14:39:30.464Z,29.71
2023-05-05T14:42:32.711Z,30.15
2023-05-05T14:45:35.003Z,30.93
2023-05-05T14:48:37.666Z,29.97
2023-05-05T14:51:39.821Z,30.04
2023-05-05T14:54:41.945Z,30.27
2023-05-05T14:57:44.210Z,30.68
2023-05-05T15:00:46.507Z,29.82
2023-05-05T15:03:48.800Z,30.53
2023-05-05T15:06:51.190Z,30.23
2023-05-05T15:09:53.384Z,30.86
2023-05-05T15:12:55.641Z,30.04
2023-05-05T15:15:57.943Z,30.44
2023-05-05T15:19:00.268Z,31.08
2023-05-05T15:22:02.583Z,30.46
2023-05-05T15:25:07.239Z,30.55
2023-05-05T15:28:09.729Z,30.10
2023-05-05T15:31:11.977Z,30.28
2023-05-05T15:34:14.240Z,30.48
2023-05-05T15:37:16.443Z,30.18
2023-05-05T15:40:18.752Z,30.91
2023-05-05T15:43:21.033Z,30.36
2023-05-05T15:46:23.293Z,30.54
2023-05-05T15:49:25.584Z,31.07
2023-05-05T15:52:27.789Z,30.81
2023-05-05T15:55:30.037Z,31.13
2023-05-05T15:58:32.263Z,31.25
2023-05-05T16:01:36.221Z,31.12
2023-05-05T16:04:38.575Z,31.25
2023-05-05T16:07:40.845Z,31.50
2023-05-05T16:10:43.169Z,31.16
2023-05-05T16:13:45.647Z,31.28
2023-05-05T16:16:47.996Z,32.48
2023-05-05T16:19:50.419Z,32.50
2023-05-05T16:22:52.648Z,31.88
2023-05-05T16:25:54.877Z,32.18
2023-05-05T16:28:57.245Z,32.78
2023-05-05T16:31:59.541Z,32.40
2023-05-05T16:35:02.268Z,32.68
2023-05-05T16:38:04.987Z,32.25
2023-05-05T16:41:07.642Z,32.23
2023-05-05T16:44:09.917Z,32.71
2023-05-05T16:47:12.265Z,33.26
2023-05-05T16:50:15.310Z,33.28
2023-05-05T16:53:17.574Z,33.12
2023-05-05T16:56:19.842Z,32.94
2023-05-05T16:59:22.185Z,32.47
2023-05-05T17:02:24.600Z,31.92
2023-05-05T17:05:27.017Z,31.83
2023-05-05T17:08:29.329Z,31.95
2023-05-05T17:11:31.744Z,32.19
2023-05-05T17:14:33.987Z,32.37
2023-05-05T17:17:36.296Z,33.07
2023-05-05T17:20:38.572Z,32.77
2023-05-05T17:23:40.861Z,32.95
2023-05-05T17:26:43.144Z,33.32
2023-05-05T17:29:45.377Z,33.30
2023-05-05T17:32:47.981Z,33.46
2023-05-05T17:35:50.136Z,33.14
2023-05-05T17:38:52.287Z,33.20
2023-05-05T17:41:54.496Z,33.35
2023-05-05T17:44:56.731Z,33.35
2023-05-05T17:47:59.024Z,33.29
2023-05-05T17:51:01.398Z,33.69
2023-05-05T17:54:03.743Z,33.59
2023-05-05T17:57:05.978Z,33.69
2023-05-05T18:00:09.080Z,34.53
2023-05-05T18:03:17.336Z,34.41
2023-05-05T18:06:19.644Z,34.75
2023-05-05T18:09:22.234Z,35.07
2023-05-05T18:12:24.476Z,35.36
2023-05-05T18:15:26.797Z,35.35
2023-05-05T18:18:29.476Z,35.88
2023-05-05T18:21:31.981Z,36.21
2023-05-05T18:24:34.277Z,35.91
2023-05-05T18:27:37.313Z,36.68
2023-05-05T18:30:39.556Z,37.13
2023-05-05T18:33:41.828Z,37.49
2023-05-05T18:36:44.449Z,37.92
2023-05-05T18:39:46.798Z,37.97
2023-05-05T18:42:49.263Z,38.16
2023-05-05T18:45:51.668Z,38.12
2023-05-05T18:48:53.996Z,38.09
2023-05-05T18:51:56.605Z,38.81
2023-05-05T18:54:59.610Z,39.13
2023-05-05T18:58:01.861Z,39.23
2023-05-05T19:01:04.189Z,39.75
2023-05-05T19:04:15.597Z,40.02
2023-05-05T19:07:34.337Z,40.35
2023-05-05T19:10:38.001Z,40.73
2023-05-05T19:13:40.869Z,40.82
2023-05-05T19:16:43.197Z,41.29
2023-05-05T19:19:45.558Z,41.07
2023-05-05T19:22:48.127Z,41.16
2023-05-05T19:25:53.576Z,41.18
2023-05-05T19:28:55.994Z,41.27
2023-05-05T19:31:58.261Z,41.75
2023-05-05T19:35:00.657Z,42.23
2023-05-05T19:38:02.937Z,42.45
2023-05-05T19:41:05.454Z,42.39
2023-05-05T19:44:07.690Z,42.81
2023-05-05T19:47:11.046Z,43.13
2023-05-05T19:50:15.370Z,43.45
2023-05-05T19:53:17.769Z,44.43
2023-05-05T19:56:19.991Z,44.94
2023-05-05T19:59:22.415Z,44.95
2023-05-05T20:02:26.613Z,46.06
2023-05-05T20:05:29.004Z,46.28
2023-05-05T20:08:31.263Z,47.63
2023-05-05T20:11:33.813Z,46.99
2023-05-05T20:14:36.082Z,47.24
2023-05-05T20:17:38.423Z,47.27
2023-05-05T20:20:40.718Z,46.92
2023-05-05T20:23:44.425Z,47.09
2023-05-05T20:26:46.778Z,47.25
2023-05-05T20:29:49.078Z,47.13
2023-05-05T20:32:51.434Z,48.19
2023-05-05T20:35:53.856Z,48.25
2023-05-05T20:38:56.122Z,49.09
2023-05-05T20:41:58.346Z,48.11
2023-05-05T20:45:01.824Z,48.15
2023-05-05T20:48:05.566Z,47.81
2023-05-05T20:51:07.975Z,48.36
2023-05-05T20:54:10.282Z,48.05
2023-05-05T20:57:12.527Z,47.90
2023-05-05T21:00:15.064Z,49.07
2023-05-05T21:03:17.407Z,48.66
2023-05-05T21:06:19.736Z,48.53
2023-05-05T21:09:23.475Z,49.19
2023-05-05T21:12:26.281Z,48.70
2023-05-05T21:15:28.706Z,49.30
2023-05-05T21:18:30.949Z,49.02
2023-05-05T21:21:33.253Z,49.44
2023-05-05T21:24:35.646Z,49.71
2023-05-05T21:27:38.133Z,49.15
2023-05-05T21:30:40.458Z,49.95
2023-05-05T21:33:42.736Z,48.93
2023-05-05T21:36:45.115Z,49.75
2023-05-05T21:39:49.472Z,50.02
2023-05-05T21:42:51.737Z,50.14
2023-05-05T21:46:04.845Z,50.63
2023-05-05T21:49:14.308Z,50.31
2023-05-05T21:52:17.149Z,50.67
2023-05-05T21:55:19.533Z,50.95
2023-05-05T21:58:23.731Z,50.46
2023-05-05T22:01:26.042Z,50.83
2023-05-05T22:04:28.278Z,51.54
2023-05-05T22:07:31.128Z,51.35
2023-05-05T22:10:35.179Z,51.96
2023-05-05T22:13:38.983Z,52.20
2023-05-05T22:16:41.522Z,51.34
2023-05-05T22:19:43.947Z,51.37
2023-05-05T22:22:46.199Z,51.30
2023-05-05T22:25:48.479Z,51.26
2023-05-05T22:28:50.731Z,52.10
2023-05-05T22:31:53.325Z,51.86
2023-05-05T22:34:55.701Z,52.96
2023-05-05T22:37:57.949Z,52.58
2023-05-05T22:41:00.231Z,53.07
2023-05-05T22:44:02.520Z,52.49
2023-05-05T22:47:04.903Z,52.80
2023-05-05T22:50:08.137Z,52.21
2023-05-05T22:53:10.508Z,52.48
2023-05-05T22:56:12.723Z,53.14
2023-05-05T22:59:14.963Z,52.56
2023-05-05T23:02:17.439Z,52.69
2023-05-05T23:05:19.851Z,52.72
2023-05-05T23:08:23.975Z,53.45
2023-05-05T23:11:26.547Z,53.27
2023-05-05T23:14:28.794Z,53.09
2023-05-05T23:17:31.210Z,53.51
2023-05-05T23:20:33.452Z,53.66
2023-05-05T23:23:35.660Z,53.33
2023-05-05T23:26:37.895Z,52.97
2023-05-05T23:29:40.129Z,53.06
2023-05-05T23:32:44.160Z,53.40
2023-05-05T23:35:46.976Z,52.96
2023-05-05T23:38:49.195Z,53.18
2023-05-05T23:41:51.404Z,52.96
2023-05-05T23:44:53.646Z,52.99
2023-05-05T23:47:56.066Z,53.00
2023-05-05T23:50:58.390Z,52.84
2023-05-05T23:54:01.212Z,53.67
2023-05-05T23:57:03.493Z,53.38
